createdAt,value
2023-05-22T00:01:56.224Z,101469.00
2023-05-22T00:04:23.070Z,101466.00
2023-05-22T00:06:50.036Z,101477.00
2023-05-22T00:09:16.897Z,101464.00
2023-05-22T00:11:43.754Z,101466.00
2023-05-22T00:14:10.669Z,101460.00
2023-05-22T00:16:37.562Z,101459.00
2023-05-22T00:19:04.542Z,101453.00
2023-05-22T00:21:35.060Z,101451.00
2023-05-22T00:24:02.231Z,101456.00
2023-05-22T00:26:29.025Z,101448.00
2023-05-22T00:28:55.920Z,101452.00
2023-05-22T00:31:23.434Z,101448.00
2023-05-22T00:33:50.820Z,101454.00
2023-05-22T00:36:18.988Z,101446.00
2023-05-22T00:38:46.286Z,101450.00
2023-05-22T00:41:13.416Z,101453.00
2023-05-22T00:43:40.333Z,101446.00
2023-05-22T00:46:10.012Z,101441.00
2023-05-22T00:48:36.992Z,101434.00
2023-05-22T00:51:03.967Z,101439.00
2023-05-22T00:53:31.627Z,101435.00
2023-05-22T00:55:59.214Z,101438.00
2023-05-22T00:58:26.759Z,101430.00
2023-05-22T01:00:53.622Z,101444.00
2023-05-22T01:03:25.982Z,101437.00
2023-05-22T01:05:53.889Z,101442.00
2023-05-22T01:08:21.428Z,101449.00
2023-05-22T01:10:52.434Z,101455.00
2023-05-22T01:13:28.298Z,101449.00
2023-05-22T01:16:18.988Z,101445.00
2023-05-22T01:19:23.098Z,101434.00
2023-05-22T01:22:11.061Z,101440.00
2023-05-22T01:25:08.796Z,101441.00
2023-05-22T01:28:02.599Z,101438.00
2023-05-22T01:30:52.842Z,101438.00
2023-05-22T01:33:21.904Z,101437.00
2023-05-22T01:35:51.842Z,101436.00
2023-05-22T01:38:19.216Z,101434.00
2023-05-22T01:40:46.647Z,101435.00
2023-05-22T01:43:14.710Z,101435.00
2023-05-22T01:45:41.554Z,101445.00
2023-05-22T01:48:08.448Z,101441.00
2023-05-22T01:50:35.412Z,101445.00
2023-05-22T01:53:11.444Z,101443.00
2023-05-22T01:56:05.497Z,101439.00
2023-05-22T01:58:52.788Z,101438.00
2023-05-22T02:01:21.141Z,101443.00
2023-05-22T02:03:51.717Z,101441.00
2023-05-22T02:06:19.262Z,101439.00
2023-05-22T02:08:46.232Z,101439.00
2023-05-22T02:11:13.700Z,101440.00
2023-05-22T02:13:40.552Z,101440.00
2023-05-22T02:16:07.639Z,101434.00
2023-05-22T02:18:34.470Z,101421.00
2023-05-22T02:21:02.586Z,101420.00
2023-05-22T02:23:29.910Z,101412.00
2023-05-22T02:25:56.999Z,101417.00
2023-05-22T02:28:24.197Z,101419.00
2023-05-22T02:30:51.209Z,101412.00
2023-05-22T02:33:18.621Z,101414.00
2023-05-22T02:35:45.826Z,101411.00
2023-05-22T02:38:12.932Z,101411.00
2023-05-22T02:40:40.618Z,101405.00
2023-05-22T02:43:07.679Z,101410.00
2023-05-22T02:45:34.533Z,101410.00
2023-05-22T02:48:03.531Z,101395.00
2023-05-22T02:50:30.626Z,101403.00
2023-05-22T02:52:57.530Z,101392.00
2023-05-22T02:55:24.361Z,101385.00
2023-05-22T02:57:51.177Z,101383.00
2023-05-22T03:00:18.618Z,101386.00
2023-05-22T03:02:45.540Z,101387.00
2023-05-22T03:05:17.412Z,101391.00
2023-05-22T03:07:47.357Z,101387.00
2023-05-22T03:10:15.342Z,101389.00
2023-05-22T03:12:42.181Z,101384.00
2023-05-22T03:15:09.732Z,101383.00
2023-05-22T03:17:36.547Z,101375.00
2023-05-22T03:20:05.289Z,101387.00
2023-05-22T03:22:32.261Z,101377.00
2023-05-22T03:24:59.077Z,101380.00
2023-05-22T03:27:25.936Z,101385.00
2023-05-22T03:29:52.827Z,101380.00
2023-05-22T03:32:19.636Z,101375.00
2023-05-22T03:34:46.449Z,101362.00
2023-05-22T03:37:13.223Z,101373.00
2023-05-22T03:39:40.041Z,101377.00
2023-05-22T03:42:06.983Z,101391.00
2023-05-22T03:44:33.736Z,101369.00
2023-05-22T03:47:00.583Z,101373.00
2023-05-22T03:49:27.476Z,101379.00
2023-05-22T03:51:54.276Z,101371.00
2023-05-22T03:54:21.109Z,101377.00
2023-05-22T03:56:47.990Z,101371.00
2023-05-22T03:59:14.794Z,101370.00
2023-05-22T04:01:41.838Z,101379.00
2023-05-22T04:04:09.588Z,101376.00
2023-05-22T04:06:42.876Z,101383.00
2023-05-22T04:09:11.637Z,101370.00
2023-05-22T04:11:42.563Z,101373.00
2023-05-22T04:14:09.796Z,101367.00
2023-05-22T04:16:36.712Z,101377.00
2023-05-22T04:19:03.774Z,101373.00
2023-05-22T04:21:34.132Z,101373.00
2023-05-22T04:24:07.200Z,101373.00
2023-05-22T04:26:34.353Z,101367.00
2023-05-22T04:29:02.217Z,101363.00
2023-05-22T04:31:29.231Z,101361.00
2023-05-22T04:34:00.169Z,101368.00
2023-05-22T04:36:28.003Z,101366.00
2023-05-22T04:38:55.415Z,101359.00
2023-05-22T04:41:26.411Z,101355.00
2023-05-22T04:43:54.540Z,101352.00
2023-05-22T04:46:21.526Z,101365.00
2023-05-22T04:48:48.502Z,101360.00
2023-05-22T04:51:15.763Z,101373.00
2023-05-22T04:53:42.802Z,101377.00
2023-05-22T04:56:09.691Z,101377.00
2023-05-22T04:58:38.320Z,101361.00
2023-05-22T05:01:05.269Z,101369.00
2023-05-22T05:03:32.260Z,101375.00
2023-05-22T05:06:00.485Z,101369.00
2023-05-22T05:08:27.290Z,101373.00
2023-05-22T05:10:54.167Z,101370.00
2023-05-22T05:13:20.999Z,101365.00
2023-05-22T05:15:47.807Z,101364.00
2023-05-22T05:18:14.796Z,101377.00
2023-05-22T05:20:41.689Z,101377.00
2023-05-22T05:23:10.449Z,101361.00
2023-05-22T05:25:38.724Z,101374.00
2023-05-22T05:28:10.772Z,101371.00
2023-05-22T05:30:41.239Z,101378.00
2023-05-22T05:33:08.390Z,101368.00
2023-05-22T05:35:35.598Z,101372.00
2023-05-22T05:38:02.513Z,101367.00
2023-05-22T05:40:29.509Z,101369.00
2023-05-22T05:42:56.448Z,101366.00
2023-05-22T05:45:23.283Z,101371.00
2023-05-22T05:47:50.389Z,101375.00
2023-05-22T05:50:17.685Z,101370.00
2023-05-22T05:52:45.072Z,101374.00
2023-05-22T05:55:12.095Z,101361.00
2023-05-22T05:57:39.046Z,101383.00
2023-05-22T06:00:09.855Z,101378.00
2023-05-22T06:02:37.641Z,101389.00
2023-05-22T06:05:09.226Z,101378.00
2023-05-22T06:07:39.832Z,101386.00
2023-05-22T06:10:07.551Z,101383.00
2023-05-22T06:12:34.335Z,101381.00
2023-05-22T06:15:01.178Z,101380.00
2023-05-22T06:17:28.050Z,101388.00
2023-05-22T06:19:54.880Z,101392.00
2023-05-22T06:22:21.783Z,101393.00
2023-05-22T06:24:48.590Z,101382.00
2023-05-22T06:27:15.532Z,101390.00
2023-05-22T06:29:42.418Z,101390.00
2023-05-22T06:32:09.292Z,101384.00
2023-05-22T06:34:36.406Z,101397.00
2023-05-22T06:37:03.779Z,101398.00
2023-05-22T06:39:32.000Z,101382.00
2023-05-22T06:41:59.057Z,101377.00
2023-05-22T06:44:25.964Z,101399.00
2023-05-22T06:46:52.914Z,101397.00
2023-05-22T06:49:19.716Z,101395.00
2023-05-22T06:51:46.512Z,101414.00
2023-05-22T06:54:14.065Z,101414.00
2023-05-22T06:56:41.476Z,101393.00
2023-05-22T06:59:09.860Z,101388.00
2023-05-22T07:01:37.216Z,101394.00
2023-05-22T07:04:05.266Z,101393.00
2023-05-22T07:06:33.669Z,101407.00
2023-05-22T07:09:00.648Z,101407.00
2023-05-22T07:11:27.486Z,101401.00
2023-05-22T07:13:54.306Z,101432.00
2023-05-22T07:16:22.519Z,101421.00
2023-05-22T07:18:49.779Z,101399.00
2023-05-22T07:21:16.651Z,101403.00
2023-05-22T07:23:43.464Z,101416.00
2023-05-22T07:26:10.438Z,101407.00
2023-05-22T07:28:37.278Z,101414.00
2023-05-22T07:31:04.102Z,101404.00
2023-05-22T07:33:30.880Z,101432.00
2023-05-22T07:35:57.648Z,101428.00
2023-05-22T07:38:24.482Z,101414.00
2023-05-22T07:40:51.358Z,101422.00
2023-05-22T07:43:18.190Z,101434.00
2023-05-22T07:45:45.177Z,101416.00
2023-05-22T07:48:12.161Z,101405.00
2023-05-22T07:50:39.087Z,101398.00
2023-05-22T07:53:06.512Z,101416.00
2023-05-22T07:55:33.334Z,101432.00
2023-05-22T07:58:00.205Z,101429.00
2023-05-22T08:00:27.390Z,101416.00
2023-05-22T08:02:54.308Z,101424.00
2023-05-22T08:05:21.395Z,101424.00
2023-05-22T08:07:48.364Z,101430.00
2023-05-22T08:10:18.184Z,101415.00
2023-05-22T08:12:45.121Z,101469.00
2023-05-22T08:15:12.081Z,101454.00
2023-05-22T08:17:39.196Z,101466.00
2023-05-22T08:20:07.314Z,101432.00
2023-05-22T08:22:34.736Z,101438.00
2023-05-22T08:25:01.695Z,101437.00
2023-05-22T08:27:28.539Z,101441.00
2023-05-22T08:29:56.296Z,101453.00
2023-05-22T08:32:23.123Z,101445.00
2023-05-22T08:34:50.467Z,101457.00
2023-05-22T08:37:17.276Z,101439.00
2023-05-22T08:39:44.077Z,101447.00
2023-05-22T08:42:10.957Z,101438.00
2023-05-22T08:44:37.852Z,101441.00
2023-05-22T08:47:09.873Z,101433.00
2023-05-22T08:49:38.722Z,101413.00
2023-05-22T08:52:37.383Z,101427.00
2023-05-22T08:55:09.008Z,101431.00
2023-05-22T08:57:36.191Z,101401.00
2023-05-22T09:00:03.989Z,101419.00
2023-05-22T09:02:32.009Z,101406.00
2023-05-22T09:04:58.887Z,101405.00
2023-05-22T09:07:27.880Z,101406.00
2023-05-22T09:09:54.745Z,101392.00
2023-05-22T09:12:21.539Z,101423.00
2023-05-22T09:14:48.351Z,101417.00
2023-05-22T09:17:16.002Z,101408.00
2023-05-22T09:19:45.098Z,101415.00
2023-05-22T09:22:12.308Z,101399.00
2023-05-22T09:24:42.406Z,101412.00
2023-05-22T09:27:10.141Z,101414.00
2023-05-22T09:29:50.900Z,101424.00
2023-05-22T09:32:18.701Z,101404.00
2023-05-22T09:34:49.074Z,101413.00
2023-05-22T09:37:16.964Z,101402.00
2023-05-22T09:39:47.736Z,101392.00
2023-05-22T09:42:17.090Z,101392.00
2023-05-22T09:44:48.665Z,101392.00
2023-05-22T09:47:15.675Z,101405.00
2023-05-22T09:49:43.831Z,101405.00
2023-05-22T09:52:12.515Z,101402.00
2023-05-22T09:54:55.759Z,101383.00
2023-05-22T09:57:24.378Z,101368.00
2023-05-22T09:59:54.528Z,101373.00
2023-05-22T10:02:22.897Z,101398.00
2023-05-22T10:04:50.427Z,101389.00
2023-05-22T10:07:24.195Z,101385.00
2023-05-22T10:09:56.885Z,101400.00
2023-05-22T10:12:24.117Z,101386.00
2023-05-22T10:14:50.967Z,101374.00
2023-05-22T10:17:17.802Z,101367.00
2023-05-22T10:19:46.856Z,101363.00
2023-05-22T10:22:20.845Z,101377.00
2023-05-22T10:24:48.587Z,101386.00
2023-05-22T10:27:15.770Z,101395.00
2023-05-22T10:29:56.445Z,101362.00
2023-05-22T10:32:46.687Z,101360.00
2023-05-22T10:35:16.657Z,101362.00
2023-05-22T10:37:53.284Z,101336.00
2023-05-22T10:40:30.355Z,101347.00
2023-05-22T10:43:01.300Z,101363.00
2023-05-22T10:45:29.061Z,101369.00
2023-05-22T10:48:09.530Z,101346.00
2023-05-22T10:50:36.661Z,101341.00
2023-05-22T10:53:20.177Z,101361.00
2023-05-22T10:55:54.878Z,101348.00
2023-05-22T10:58:32.156Z,101331.00
2023-05-22T11:01:08.106Z,101336.00
2023-05-22T11:03:58.205Z,101338.00
2023-05-22T11:06:48.837Z,101355.00
2023-05-22T11:09:30.953Z,101342.00
2023-05-22T11:12:31.338Z,101350.00
2023-05-22T11:15:06.329Z,101320.00
2023-05-22T11:17:51.158Z,101309.00
2023-05-22T11:20:18.158Z,101312.00
2023-05-22T11:23:10.492Z,101306.00
2023-05-22T11:25:38.508Z,101319.00
2023-05-22T11:28:06.335Z,101306.00
2023-05-22T11:30:34.441Z,101306.00
2023-05-22T11:33:02.013Z,101289.00
2023-05-22T11:35:29.099Z,101296.00
2023-05-22T11:37:56.355Z,101305.00
2023-05-22T11:40:25.845Z,101286.00
2023-05-22T11:42:53.536Z,101295.00
2023-05-22T11:45:20.549Z,101295.00
2023-05-22T11:47:48.501Z,101294.00
2023-05-22T11:50:22.563Z,101302.00
2023-05-22T11:52:53.726Z,101293.00
2023-05-22T11:55:20.554Z,101302.00
2023-05-22T11:57:48.061Z,101287.00
2023-05-22T12:00:15.524Z,101271.00
2023-05-22T12:02:47.464Z,101269.00
2023-05-22T12:05:15.922Z,101284.00
2023-05-22T12:07:43.003Z,101293.00
2023-05-22T12:10:11.082Z,101270.00
2023-05-22T12:12:38.759Z,101271.00
2023-05-22T12:15:07.087Z,101266.00
2023-05-22T12:17:36.432Z,101263.00
2023-05-22T12:20:04.752Z,101270.00
2023-05-22T12:22:31.701Z,101236.00
2023-05-22T12:24:58.551Z,101235.00
2023-05-22T12:27:32.621Z,101252.00
2023-05-22T12:30:08.175Z,101230.00
2023-05-22T12:32:34.973Z,101238.00
2023-05-22T12:35:01.838Z,101230.00
2023-05-22T12:37:28.684Z,101221.00
2023-05-22T12:39:57.108Z,101218.00
2023-05-22T12:42:27.893Z,101206.00
2023-05-22T12:44:56.644Z,101205.00
2023-05-22T12:47:24.587Z,101205.00
2023-05-22T12:49:51.629Z,101197.00
2023-05-22T12:52:18.646Z,101196.00
2023-05-22T12:54:45.614Z,101207.00
2023-05-22T12:57:12.441Z,101212.00
2023-05-22T12:59:39.309Z,101202.00
2023-05-22T13:02:06.912Z,101212.00
2023-05-22T13:04:34.225Z,101208.00
2023-05-22T13:07:01.185Z,101207.00
2023-05-22T13:09:28.425Z,101182.00
2023-05-22T13:11:55.443Z,101187.00
2023-05-22T13:14:22.691Z,101196.00
2023-05-22T13:16:49.623Z,101188.00
2023-05-22T13:19:16.662Z,101192.00
2023-05-22T13:21:43.721Z,101190.00
2023-05-22T13:24:10.931Z,101162.00
2023-05-22T13:26:37.916Z,101175.00
2023-05-22T13:29:04.977Z,101181.00
2023-05-22T13:31:37.143Z,101166.00
2023-05-22T13:34:04.631Z,101171.00
2023-05-22T13:36:31.750Z,101179.00
2023-05-22T13:38:58.648Z,101164.00
2023-05-22T13:41:25.769Z,101162.00
2023-05-22T13:43:52.606Z,101172.00
2023-05-22T13:46:21.489Z,101155.00
2023-05-22T13:48:48.461Z,101151.00
2023-05-22T13:51:15.321Z,101165.00
2023-05-22T13:53:42.134Z,101139.00
2023-05-22T13:56:09.014Z,101149.00
2023-05-22T13:58:35.861Z,101151.00
2023-05-22T14:01:02.702Z,101160.00
2023-05-22T14:03:29.561Z,101150.00
2023-05-22T14:05:56.358Z,101131.00
2023-05-22T14:08:24.041Z,101135.00
2023-05-22T14:10:50.840Z,101145.00
2023-05-22T14:13:17.688Z,101148.00
2023-05-22T14:15:46.881Z,101145.00
2023-05-22T14:18:14.503Z,101155.00
2023-05-22T14:20:41.493Z,101127.00
2023-05-22T14:23:08.552Z,101132.00
2023-05-22T14:25:35.520Z,101122.00
2023-05-22T14:28:02.317Z,101125.00
2023-05-22T14:30:29.158Z,101120.00
2023-05-22T14:32:55.986Z,101102.00
2023-05-22T14:35:22.922Z,101104.00
2023-05-22T14:37:49.741Z,101123.00
2023-05-22T14:40:16.745Z,101131.00
2023-05-22T14:42:43.998Z,101108.00
2023-05-22T14:45:11.279Z,101103.00
2023-05-22T14:47:38.196Z,101104.00
2023-05-22T14:50:18.314Z,101080.00
2023-05-22T14:52:46.844Z,101087.00
2023-05-22T14:55:13.706Z,101082.00
2023-05-22T14:57:40.950Z,101085.00
2023-05-22T15:00:12.766Z,101096.00
2023-05-22T15:02:40.683Z,101079.00
2023-05-22T15:05:09.704Z,101072.00
2023-05-22T15:10:07.442Z,101058.00
2023-05-22T15:12:34.356Z,101055.00
2023-05-22T15:15:01.594Z,101046.00
2023-05-22T15:17:28.672Z,101030.00
2023-05-22T15:19:55.603Z,101038.00
2023-05-22T15:22:22.487Z,101045.00
2023-05-22T15:25:02.401Z,101048.00
2023-05-22T15:27:29.205Z,101037.00
2023-05-22T15:29:56.285Z,101030.00
2023-05-22T15:32:23.893Z,101014.00
2023-05-22T15:34:51.614Z,101032.00
2023-05-22T15:37:18.874Z,101019.00
2023-05-22T15:39:45.660Z,101016.00
2023-05-22T15:42:12.451Z,101013.00
2023-05-22T15:44:39.241Z,101017.00
2023-05-22T15:47:06.210Z,101021.00
2023-05-22T15:49:33.030Z,101020.00
2023-05-22T15:51:59.952Z,101016.00
2023-05-22T15:54:26.870Z,101013.00
2023-05-22T15:56:53.893Z,100998.00
2023-05-22T15:59:20.713Z,101005.00
2023-05-22T16:01:49.552Z,101000.00
2023-05-22T16:04:16.444Z,101006.00
2023-05-22T16:06:43.305Z,101003.00
2023-05-22T16:09:10.149Z,101006.00
2023-05-22T16:11:37.902Z,101002.00
2023-05-22T16:14:04.898Z,101003.00
2023-05-22T16:16:31.895Z,100994.00
2023-05-22T16:18:59.188Z,100998.00
2023-05-22T16:21:26.090Z,100991.00
2023-05-22T16:23:52.936Z,101001.00
2023-05-22T16:26:19.875Z,100987.00
2023-05-22T16:28:52.741Z,100985.00
2023-05-22T16:31:20.060Z,100989.00
2023-05-22T16:33:47.022Z,100998.00
2023-05-22T16:36:13.943Z,100996.00
2023-05-22T16:38:40.917Z,100988.00
2023-05-22T16:41:07.852Z,100996.00
2023-05-22T16:43:34.714Z,100982.00
2023-05-22T16:46:03.407Z,100994.00
2023-05-22T16:48:30.331Z,100982.00
2023-05-22T16:50:57.162Z,100970.00
2023-05-22T16:53:24.009Z,100980.00
2023-05-22T16:55:51.242Z,100977.00
2023-05-22T16:58:18.145Z,100962.00
2023-05-22T17:00:45.339Z,100953.00
2023-05-22T17:03:13.024Z,100952.00
2023-05-22T17:05:40.624Z,100934.00
2023-05-22T17:08:07.779Z,100946.00
2023-05-22T17:10:34.764Z,100943.00
2023-05-22T17:13:01.649Z,100946.00
2023-05-22T17:15:28.569Z,100929.00
2023-05-22T17:17:55.512Z,100917.00
2023-05-22T17:20:23.072Z,100919.00
2023-05-22T17:22:50.197Z,100915.00
2023-05-22T17:25:17.179Z,100926.00
2023-05-22T17:27:44.444Z,100923.00
2023-05-22T17:30:11.579Z,100917.00
2023-05-22T17:32:38.586Z,100927.00
2023-05-22T17:35:06.960Z,100924.00
2023-05-22T17:37:34.050Z,100913.00
2023-05-22T17:40:01.125Z,100921.00
2023-05-22T17:42:28.052Z,100917.00
2023-05-22T17:44:54.904Z,100926.00
2023-05-22T17:47:21.828Z,100923.00
2023-05-22T17:49:48.719Z,100922.00
2023-05-22T17:52:15.570Z,100928.00
2023-05-22T17:54:42.424Z,100926.00
2023-05-22T17:57:09.300Z,100932.00
2023-05-22T17:59:37.354Z,100914.00
2023-05-22T18:02:06.687Z,100913.00
2023-05-22T18:04:33.527Z,100914.00
2023-05-22T18:07:00.405Z,100913.00
2023-05-22T18:09:27.267Z,100927.00
2023-05-22T18:11:54.433Z,100922.00
2023-05-22T18:14:21.257Z,100929.00
2023-05-22T18:16:48.216Z,100930.00
2023-05-22T18:19:15.114Z,100935.00
2023-05-22T18:21:42.018Z,100941.00
2023-05-22T18:24:08.886Z,100950.00
2023-05-22T18:26:35.720Z,100954.00
2023-05-22T18:29:02.546Z,100962.00
2023-05-22T18:31:29.497Z,100981.00
2023-05-22T18:33:56.485Z,100995.00
2023-05-22T18:36:23.406Z,100997.00
2023-05-22T18:38:50.351Z,100985.00
2023-05-22T18:41:17.211Z,100976.00
2023-05-22T18:43:44.024Z,100972.00
2023-05-22T18:46:11.100Z,100972.00
2023-05-22T18:48:37.914Z,100975.00
2023-05-22T18:51:04.775Z,100971.00
2023-05-22T18:53:31.678Z,100983.00
2023-05-22T18:55:58.491Z,100973.00
2023-05-22T18:58:25.624Z,100968.00
2023-05-22T19:00:55.575Z,100976.00
2023-05-22T19:03:22.553Z,100985.00
2023-05-22T19:05:49.401Z,100989.00
2023-05-22T19:08:16.251Z,100993.00
2023-05-22T19:10:43.266Z,101002.00
2023-05-22T19:13:10.182Z,100992.00
2023-05-22T19:15:38.315Z,100984.00
2023-05-22T19:18:05.437Z,100980.00
2023-05-22T19:20:32.372Z,100979.00
2023-05-22T19:22:59.260Z,100988.00
2023-05-22T19:25:26.170Z,100962.00
2023-05-22T19:27:52.978Z,100966.00
2023-05-22T19:30:21.858Z,100973.00
2023-05-22T19:32:55.636Z,100977.00
2023-05-22T19:35:22.782Z,100975.00
2023-05-22T19:37:50.195Z,100990.00
2023-05-22T19:40:17.285Z,100995.00
2023-05-22T19:42:44.177Z,100985.00
2023-05-22T19:45:11.242Z,100976.00
2023-05-22T19:47:38.151Z,100980.00
2023-05-22T19:50:05.954Z,100984.00
2023-05-22T19:52:32.800Z,101013.00
2023-05-22T19:54:59.712Z,101007.00
2023-05-22T19:57:27.169Z,101025.00
2023-05-22T19:59:54.352Z,101013.00
2023-05-22T20:02:21.357Z,101025.00
2023-05-22T20:04:48.368Z,101036.00
2023-05-22T20:07:15.630Z,101037.00
2023-05-22T20:09:42.739Z,101037.00
2023-05-22T20:12:10.706Z,101029.00
2023-05-22T20:14:37.798Z,101055.00
2023-05-22T20:17:05.569Z,101054.00
2023-05-22T20:19:34.600Z,101042.00
2023-05-22T20:22:02.101Z,101026.00
2023-05-22T20:24:29.609Z,101019.00
2023-05-22T20:26:56.938Z,101017.00
2023-05-22T20:29:23.875Z,101028.00
2023-05-22T20:31:54.530Z,101045.00
2023-05-22T20:34:23.447Z,101046.00
2023-05-22T20:36:50.355Z,101054.00
2023-05-22T20:39:18.078Z,101045.00
2023-05-22T20:41:46.166Z,101051.00
2023-05-22T20:44:12.980Z,101045.00
2023-05-22T20:46:39.834Z,101047.00
2023-05-22T20:49:06.687Z,101052.00
2023-05-22T20:51:33.783Z,101034.00
2023-05-22T20:54:01.049Z,101035.00
2023-05-22T20:56:27.990Z,101031.00
2023-05-22T20:58:55.027Z,101037.00
2023-05-22T21:01:23.272Z,101032.00
2023-05-22T21:03:51.745Z,101040.00
2023-05-22T21:06:19.110Z,101044.00
2023-05-22T21:08:46.010Z,101028.00
2023-05-22T21:11:13.130Z,101030.00
2023-05-22T21:13:39.997Z,101038.00
2023-05-22T21:16:07.013Z,101042.00
2023-05-22T21:18:33.810Z,101029.00
2023-05-22T21:21:00.734Z,101021.00
2023-05-22T21:23:27.586Z,101023.00
2023-05-22T21:25:54.410Z,101027.00
2023-05-22T21:28:21.242Z,101019.00
2023-05-22T21:30:48.084Z,101032.00
2023-05-22T21:33:14.902Z,101017.00
2023-05-22T21:35:41.762Z,101012.00
2023-05-22T21:38:08.613Z,101025.00
2023-05-22T21:40:35.458Z,101019.00
2023-05-22T21:43:02.327Z,101023.00
2023-05-22T21:45:29.215Z,101026.00
2023-05-22T21:47:56.138Z,101022.00
2023-05-22T21:50:22.983Z,101024.00
2023-05-22T21:52:49.848Z,101015.00
2023-05-22T21:55:16.706Z,101013.00
2023-05-22T21:57:45.503Z,101011.00
2023-05-22T22:00:13.439Z,100999.00
2023-05-22T22:02:40.369Z,101002.00
2023-05-22T22:05:07.675Z,101002.00
2023-05-22T22:07:34.534Z,101002.00
2023-05-22T22:10:01.368Z,101009.00
2023-05-22T22:12:28.188Z,101004.00
2023-05-22T22:14:55.045Z,101009.00
2023-05-22T22:17:23.477Z,101010.00
2023-05-22T22:19:53.496Z,100996.00
2023-05-22T22:22:22.630Z,100993.00
2023-05-22T22:24:49.709Z,100985.00
2023-05-22T22:27:16.612Z,100981.00
2023-05-22T22:29:43.765Z,100975.00
2023-05-22T22:32:10.824Z,100979.00
2023-05-22T22:34:37.866Z,100967.00
2023-05-22T22:37:05.908Z,100972.00
2023-05-22T22:39:32.787Z,100963.00
2023-05-22T22:42:05.069Z,100958.00
2023-05-22T22:44:32.368Z,100958.00
2023-05-22T22:47:01.815Z,100961.00
2023-05-22T22:49:28.745Z,100954.00
2023-05-22T22:51:56.380Z,100952.00
2023-05-22T22:54:24.007Z,100946.00
2023-05-22T22:56:51.476Z,100949.00
2023-05-22T22:59:18.316Z,100935.00
2023-05-22T23:01:45.377Z,100927.00
2023-05-22T23:04:13.058Z,100943.00
2023-05-22T23:06:42.628Z,100940.00
2023-05-22T23:09:11.022Z,100936.00
2023-05-22T23:11:38.555Z,100933.00
2023-05-22T23:14:08.677Z,100941.00
2023-05-22T23:16:36.641Z,100941.00
2023-05-22T23:19:04.727Z,100935.00
2023-05-22T23:21:32.461Z,100934.00
2023-05-22T23:24:00.251Z,100926.00
2023-05-22T23:26:31.200Z,100920.00
2023-05-22T23:29:01.315Z,100916.00
2023-05-22T23:31:30.747Z,100918.00
2023-05-22T23:33:58.108Z,100914.00
2023-05-22T23:36:25.871Z,100916.00
2023-05-22T23:38:52.725Z,100901.00
2023-05-22T23:41:19.642Z,100901.00
2023-05-22T23:43:46.657Z,100896.00
2023-05-22T23:46:13.995Z,100896.00
2023-05-22T23:48:41.796Z,100895.00
2023-05-22T23:51:09.099Z,100896.00
2023-05-22T23:53:36.390Z,100892.00
2023-05-22T23:56:04.233Z,100887.00
2023-05-22T23:58:32.094Z,100885.00
